sensor_id;sensor_type;location;lat;lon;timestamp;P1;durP1;ratioP1;P2;durP2;ratioP2
13590;SDS011;6866;50.778;7.206;2022-07-30T00:00:54;8.75;;;3.35;;
13590;SDS011;6866;50.778;7.206;2022-07-30T00:03:20;9.85;;;3.45;;
13590;SDS011;6866;50.778;7.206;2022-07-30T00:05:46;9.45;;;3.58;;
13590;SDS011;6866;50.778;7.206;2022-07-30T00:08:12;9.93;;;3.40;;
13590;SDS011;6866;50.778;7.206;2022-07-30T00:10:38;7.63;;;3.35;;
13590;SDS011;6866;50.778;7.206;2022-07-30T00:13:04;9.73;;;2.92;;
13590;SDS011;6866;50.778;7.206;2022-07-30T00:15:30;7.25;;;3.30;;
13590;SDS011;6866;50.778;7.206;2022-07-30T00:17:56;6.88;;;3.40;;
13590;SDS011;6866;50.778;7.206;2022-07-30T00:20:21;6.63;;;3.22;;
13590;SDS011;6866;50.778;7.206;2022-07-30T00:22:47;7.18;;;3.17;;
13590;SDS011;6866;50.778;7.206;2022-07-30T00:25:12;6.13;;;3.00;;
13590;SDS011;6866;50.778;7.206;2022-07-30T00:27:38;8.88;;;3.22;;
13590;SDS011;6866;50.778;7.206;2022-07-30T00:30:04;10.80;;;3.35;;
13590;SDS011;6866;50.778;7.206;2022-07-30T00:32:30;7.40;;;3.90;;
13590;SDS011;6866;50.778;7.206;2022-07-30T00:34:56;8.75;;;4.10;;
13590;SDS011;6866;50.778;7.206;2022-07-30T00:37:21;10.63;;;3.58;;
13590;SDS011;6866;50.778;7.206;2022-07-30T00:39:47;6.35;;;3.60;;
13590;SDS011;6866;50.778;7.206;2022-07-30T00:42:13;9.27;;;3.30;;
13590;SDS011;6866;50.778;7.206;2022-07-30T00:44:39;10.55;;;3.55;;
13590;SDS011;6866;50.778;7.206;2022-07-30T00:47:05;5.57;;;3.22;;
13590;SDS011;6866;50.778;7.206;2022-07-30T00:49:30;8.38;;;3.67;;
13590;SDS011;6866;50.778;7.206;2022-07-30T00:51:56;8.55;;;3.40;;
13590;SDS011;6866;50.778;7.206;2022-07-30T00:54:22;7.63;;;3.70;;
13590;SDS011;6866;50.778;7.206;2022-07-30T00:56:47;8.18;;;3.78;;
13590;SDS011;6866;50.778;7.206;2022-07-30T00:59:13;9.32;;;3.75;;
13590;SDS011;6866;50.778;7.206;2022-07-30T01:04:14;9.65;;;3.88;;
13590;SDS011;6866;50.778;7.206;2022-07-30T01:06:40;8.18;;;4.30;;
13590;SDS011;6866;50.778;7.206;2022-07-30T01:09:06;8.52;;;4.07;;
13590;SDS011;6866;50.778;7.206;2022-07-30T01:11:33;7.93;;;4.13;;
13590;SDS011;6866;50.778;7.206;2022-07-30T01:14:01;9.90;;;4.22;;
13590;SDS011;6866;50.778;7.206;2022-07-30T01:16:27;7.72;;;3.75;;
13590;SDS011;6866;50.778;7.206;2022-07-30T01:18:54;7.45;;;4.22;;
13590;SDS011;6866;50.778;7.206;2022-07-30T01:21:40;11.07;;;3.95;;
13590;SDS011;6866;50.778;7.206;2022-07-30T01:24:13;7.90;;;3.75;;
13590;SDS011;6866;50.778;7.206;2022-07-30T01:26:46;9.00;;;4.13;;
13590;SDS011;6866;50.778;7.206;2022-07-30T01:29:13;12.25;;;4.10;;
13590;SDS011;6866;50.778;7.206;2022-07-30T01:31:40;12.43;;;4.07;;
13590;SDS011;6866;50.778;7.206;2022-07-30T01:34:08;8.63;;;4.25;;
13590;SDS011;6866;50.778;7.206;2022-07-30T01:36:36;9.98;;;3.83;;
13590;SDS011;6866;50.778;7.206;2022-07-30T01:39:02;6.50;;;3.72;;
13590;SDS011;6866;50.778;7.206;2022-07-30T01:41:29;9.10;;;3.65;;
13590;SDS011;6866;50.778;7.206;2022-07-30T01:43:55;6.60;;;3.53;;
13590;SDS011;6866;50.778;7.206;2022-07-30T01:46:21;9.55;;;4.38;;
13590;SDS011;6866;50.778;7.206;2022-07-30T01:48:49;8.07;;;4.03;;
13590;SDS011;6866;50.778;7.206;2022-07-30T01:51:15;7.63;;;4.38;;
13590;SDS011;6866;50.778;7.206;2022-07-30T01:53:42;12.57;;;4.00;;
13590;SDS011;6866;50.778;7.206;2022-07-30T01:56:09;9.88;;;4.20;;
13590;SDS011;6866;50.778;7.206;2022-07-30T01:58:37;7.30;;;4.32;;
13590;SDS011;6866;50.778;7.206;2022-07-30T02:01:05;7.75;;;4.20;;
13590;SDS011;6866;50.778;7.206;2022-07-30T02:03:31;7.85;;;4.00;;
13590;SDS011;6866;50.778;7.206;2022-07-30T02:05:59;7.43;;;3.90;;
13590;SDS011;6866;50.778;7.206;2022-07-30T02:08:36;8.57;;;4.30;;
13590;SDS011;6866;50.778;7.206;2022-07-30T02:11:10;7.57;;;4.15;;
13590;SDS011;6866;50.778;7.206;2022-07-30T02:13:44;10.80;;;4.57;;
13590;SDS011;6866;50.778;7.206;2022-07-30T02:16:19;9.48;;;3.97;;
13590;SDS011;6866;50.778;7.206;2022-07-30T02:19:04;6.63;;;4.00;;
13590;SDS011;6866;50.778;7.206;2022-07-30T02:21:34;9.10;;;4.50;;
13590;SDS011;6866;50.778;7.206;2022-07-30T02:24:04;11.40;;;4.47;;
13590;SDS011;6866;50.778;7.206;2022-07-30T02:26:32;8.02;;;4.35;;
13590;SDS011;6866;50.778;7.206;2022-07-30T02:29:01;8.82;;;3.95;;
13590;SDS011;6866;50.778;7.206;2022-07-30T02:31:27;8.60;;;4.20;;
13590;SDS011;6866;50.778;7.206;2022-07-30T02:33:56;9.10;;;4.35;;
13590;SDS011;6866;50.778;7.206;2022-07-30T02:36:23;9.10;;;4.45;;
13590;SDS011;6866;50.778;7.206;2022-07-30T02:38:50;8.23;;;4.07;;
13590;SDS011;6866;50.778;7.206;2022-07-30T02:41:17;11.15;;;4.47;;
13590;SDS011;6866;50.778;7.206;2022-07-30T02:43:45;9.35;;;4.78;;
13590;SDS011;6866;50.778;7.206;2022-07-30T02:46:14;9.43;;;4.18;;
13590;SDS011;6866;50.778;7.206;2022-07-30T02:48:42;7.18;;;4.00;;
13590;SDS011;6866;50.778;7.206;2022-07-30T02:51:10;8.43;;;4.32;;
13590;SDS011;6866;50.778;7.206;2022-07-30T02:53:40;7.75;;;3.90;;
13590;SDS011;6866;50.778;7.206;2022-07-30T02:56:11;8.82;;;3.92;;
13590;SDS011;6866;50.778;7.206;2022-07-30T02:58:39;10.18;;;4.38;;
13590;SDS011;6866;50.778;7.206;2022-07-30T03:01:07;6.78;;;4.50;;
13590;SDS011;6866;50.778;7.206;2022-07-30T03:03:33;7.10;;;4.20;;
13590;SDS011;6866;50.778;7.206;2022-07-30T03:05:59;8.88;;;4.70;;
13590;SDS011;6866;50.778;7.206;2022-07-30T03:08:26;8.25;;;4.50;;
13590;SDS011;6866;50.778;7.206;2022-07-30T03:10:53;8.85;;;4.40;;
13590;SDS011;6866;50.778;7.206;2022-07-30T03:13:19;7.50;;;4.20;;
13590;SDS011;6866;50.778;7.206;2022-07-30T03:15:46;8.63;;;4.22;;
13590;SDS011;6866;50.778;7.206;2022-07-30T03:18:15;6.28;;;4.03;;
13590;SDS011;6866;50.778;7.206;2022-07-30T03:20:47;10.15;;;4.40;;
13590;SDS011;6866;50.778;7.206;2022-07-30T03:23:15;8.23;;;4.68;;
13590;SDS011;6866;50.778;7.206;2022-07-30T03:25:43;8.90;;;4.28;;
13590;SDS011;6866;50.778;7.206;2022-07-30T03:28:16;7.47;;;4.63;;
13590;SDS011;6866;50.778;7.206;2022-07-30T03:30:43;8.85;;;4.30;;
13590;SDS011;6866;50.778;7.206;2022-07-30T03:33:09;9.40;;;4.95;;
13590;SDS011;6866;50.778;7.206;2022-07-30T03:35:36;9.27;;;4.80;;
13590;SDS011;6866;50.778;7.206;2022-07-30T03:38:03;6.68;;;4.28;;
13590;SDS011;6866;50.778;7.206;2022-07-30T03:40:29;7.68;;;4.03;;
13590;SDS011;6866;50.778;7.206;2022-07-30T03:42:56;8.65;;;4.68;;
13590;SDS011;6866;50.778;7.206;2022-07-30T03:45:22;8.68;;;4.32;;
13590;SDS011;6866;50.778;7.206;2022-07-30T03:47:48;6.70;;;4.40;;
13590;SDS011;6866;50.778;7.206;2022-07-30T03:50:15;10.35;;;4.63;;
13590;SDS011;6866;50.778;7.206;2022-07-30T03:52:40;11.05;;;5.18;;
13590;SDS011;6866;50.778;7.206;2022-07-30T03:55:07;6.93;;;4.00;;
13590;SDS011;6866;50.778;7.206;2022-07-30T03:57:34;7.72;;;4.18;;
13590;SDS011;6866;50.778;7.206;2022-07-30T04:00:00;8.70;;;4.68;;
13590;SDS011;6866;50.778;7.206;2022-07-30T04:02:26;11.45;;;4.75;;
13590;SDS011;6866;50.778;7.206;2022-07-30T04:04:52;9.48;;;4.32;;
13590;SDS011;6866;50.778;7.206;2022-07-30T04:07:17;10.63;;;4.32;;
13590;SDS011;6866;50.778;7.206;2022-07-30T04:09:43;9.73;;;4.40;;
13590;SDS011;6866;50.778;7.206;2022-07-30T04:12:08;10.40;;;5.13;;
13590;SDS011;6866;50.778;7.206;2022-07-30T04:14:41;10.07;;;4.45;;
13590;SDS011;6866;50.778;7.206;2022-07-30T04:17:10;10.30;;;4.93;;
13590;SDS011;6866;50.778;7.206;2022-07-30T04:19:47;15.27;;;4.78;;
13590;SDS011;6866;50.778;7.206;2022-07-30T04:22:16;9.77;;;5.25;;
13590;SDS011;6866;50.778;7.206;2022-07-30T04:24:45;13.10;;;6.03;;
13590;SDS011;6866;50.778;7.206;2022-07-30T04:27:11;8.27;;;4.95;;
13590;SDS011;6866;50.778;7.206;2022-07-30T04:29:38;12.02;;;5.85;;
13590;SDS011;6866;50.778;7.206;2022-07-30T04:32:05;10.90;;;6.10;;
13590;SDS011;6866;50.778;7.206;2022-07-30T04:34:33;10.07;;;5.20;;
13590;SDS011;6866;50.778;7.206;2022-07-30T04:36:59;11.98;;;5.50;;
13590;SDS011;6866;50.778;7.206;2022-07-30T04:39:25;10.20;;;5.25;;
13590;SDS011;6866;50.778;7.206;2022-07-30T04:41:50;13.70;;;5.18;;
13590;SDS011;6866;50.778;7.206;2022-07-30T04:44:19;10.55;;;5.60;;
13590;SDS011;6866;50.778;7.206;2022-07-30T04:46:45;11.23;;;5.97;;
13590;SDS011;6866;50.778;7.206;2022-07-30T04:49:11;14.55;;;5.75;;
13590;SDS011;6866;50.778;7.206;2022-07-30T04:51:39;10.43;;;5.50;;
13590;SDS011;6866;50.778;7.206;2022-07-30T04:54:08;10.85;;;5.47;;
13590;SDS011;6866;50.778;7.206;2022-07-30T04:56:35;14.07;;;5.68;;
13590;SDS011;6866;50.778;7.206;2022-07-30T04:59:02;13.05;;;5.60;;
13590;SDS011;6866;50.778;7.206;2022-07-30T05:01:30;13.13;;;5.75;;
13590;SDS011;6866;50.778;7.206;2022-07-30T05:04:01;17.23;;;6.10;;
13590;SDS011;6866;50.778;7.206;2022-07-30T05:06:28;15.15;;;5.68;;
13590;SDS011;6866;50.778;7.206;2022-07-30T05:08:55;12.00;;;5.30;;
13590;SDS011;6866;50.778;7.206;2022-07-30T05:11:21;13.00;;;5.95;;
13590;SDS011;6866;50.778;7.206;2022-07-30T05:13:47;10.57;;;5.72;;
13590;SDS011;6866;50.778;7.206;2022-07-30T05:16:13;11.20;;;5.68;;
13590;SDS011;6866;50.778;7.206;2022-07-30T05:18:39;12.30;;;5.78;;
13590;SDS011;6866;50.778;7.206;2022-07-30T05:21:05;11.95;;;5.30;;
13590;SDS011;6866;50.778;7.206;2022-07-30T05:23:31;11.38;;;5.35;;
13590;SDS011;6866;50.778;7.206;2022-07-30T05:25:57;10.82;;;5.60;;
13590;SDS011;6866;50.778;7.206;2022-07-30T05:28:23;11.40;;;5.78;;
13590;SDS011;6866;50.778;7.206;2022-07-30T05:30:50;9.10;;;5.68;;
13590;SDS011;6866;50.778;7.206;2022-07-30T05:33:17;13.25;;;6.47;;
13590;SDS011;6866;50.778;7.206;2022-07-30T05:35:42;13.55;;;6.15;;
13590;SDS011;6866;50.778;7.206;2022-07-30T05:38:08;12.18;;;6.13;;
13590;SDS011;6866;50.778;7.206;2022-07-30T05:40:33;12.15;;;5.80;;
13590;SDS011;6866;50.778;7.206;2022-07-30T05:42:59;14.23;;;6.05;;
13590;SDS011;6866;50.778;7.206;2022-07-30T05:45:24;10.35;;;5.68;;
13590;SDS011;6866;50.778;7.206;2022-07-30T05:47:50;14.95;;;5.75;;
13590;SDS011;6866;50.778;7.206;2022-07-30T05:50:15;11.38;;;5.07;;
13590;SDS011;6866;50.778;7.206;2022-07-30T05:52:41;11.73;;;5.65;;
13590;SDS011;6866;50.778;7.206;2022-07-30T05:55:07;10.23;;;6.38;;
13590;SDS011;6866;50.778;7.206;2022-07-30T05:57:33;11.05;;;5.30;;
13590;SDS011;6866;50.778;7.206;2022-07-30T06:00:00;11.00;;;5.60;;
13590;SDS011;6866;50.778;7.206;2022-07-30T06:02:27;13.60;;;5.97;;
13590;SDS011;6866;50.778;7.206;2022-07-30T06:04:52;9.75;;;5.40;;
13590;SDS011;6866;50.778;7.206;2022-07-30T06:07:18;12.63;;;6.07;;
13590;SDS011;6866;50.778;7.206;2022-07-30T06:09:43;11.75;;;5.85;;
13590;SDS011;6866;50.778;7.206;2022-07-30T06:12:09;10.77;;;5.25;;
13590;SDS011;6866;50.778;7.206;2022-07-30T06:14:35;13.13;;;5.45;;
13590;SDS011;6866;50.778;7.206;2022-07-30T06:17:00;12.60;;;6.05;;
13590;SDS011;6866;50.778;7.206;2022-07-30T06:19:26;12.10;;;5.82;;
13590;SDS011;6866;50.778;7.206;2022-07-30T06:21:52;12.63;;;5.70;;
13590;SDS011;6866;50.778;7.206;2022-07-30T06:24:17;11.98;;;5.75;;
13590;SDS011;6866;50.778;7.206;2022-07-30T06:26:43;14.40;;;6.45;;
13590;SDS011;6866;50.778;7.206;2022-07-30T06:29:08;14.18;;;6.47;;
13590;SDS011;6866;50.778;7.206;2022-07-30T06:31:34;12.98;;;6.25;;
13590;SDS011;6866;50.778;7.206;2022-07-30T06:34:02;16.05;;;6.60;;
13590;SDS011;6866;50.778;7.206;2022-07-30T06:36:27;12.32;;;6.20;;
13590;SDS011;6866;50.778;7.206;2022-07-30T06:38:54;12.27;;;6.55;;
13590;SDS011;6866;50.778;7.206;2022-07-30T06:41:19;12.75;;;6.53;;
13590;SDS011;6866;50.778;7.206;2022-07-30T06:43:45;13.82;;;6.45;;
13590;SDS011;6866;50.778;7.206;2022-07-30T06:46:10;13.60;;;6.85;;
13590;SDS011;6866;50.778;7.206;2022-07-30T06:48:36;15.27;;;6.53;;
13590;SDS011;6866;50.778;7.206;2022-07-30T06:51:02;13.15;;;6.57;;
13590;SDS011;6866;50.778;7.206;2022-07-30T06:53:27;14.65;;;6.45;;
13590;SDS011;6866;50.778;7.206;2022-07-30T06:55:53;12.98;;;6.95;;
13590;SDS011;6866;50.778;7.206;2022-07-30T06:58:18;12.27;;;6.40;;
13590;SDS011;6866;50.778;7.206;2022-07-30T07:00:44;13.20;;;6.72;;
13590;SDS011;6866;50.778;7.206;2022-07-30T07:06:31;14.05;;;6.63;;
13590;SDS011;6866;50.778;7.206;2022-07-30T07:08:57;14.60;;;7.15;;
13590;SDS011;6866;50.778;7.206;2022-07-30T07:11:23;14.27;;;7.28;;
13590;SDS011;6866;50.778;7.206;2022-07-30T07:13:48;12.57;;;6.05;;
13590;SDS011;6866;50.778;7.206;2022-07-30T07:16:14;18.70;;;8.50;;
13590;SDS011;6866;50.778;7.206;2022-07-30T07:18:40;13.43;;;7.55;;
13590;SDS011;6866;50.778;7.206;2022-07-30T07:21:05;14.98;;;8.57;;
13590;SDS011;6866;50.778;7.206;2022-07-30T07:23:32;14.73;;;7.43;;
13590;SDS011;6866;50.778;7.206;2022-07-30T07:25:58;16.48;;;7.43;;
13590;SDS011;6866;50.778;7.206;2022-07-30T07:28:24;14.18;;;7.28;;
13590;SDS011;6866;50.778;7.206;2022-07-30T07:30:50;14.00;;;7.63;;
13590;SDS011;6866;50.778;7.206;2022-07-30T07:33:16;13.93;;;7.45;;
13590;SDS011;6866;50.778;7.206;2022-07-30T07:35:41;13.97;;;7.40;;
13590;SDS011;6866;50.778;7.206;2022-07-30T07:38:07;15.10;;;7.32;;
13590;SDS011;6866;50.778;7.206;2022-07-30T07:40:32;14.32;;;8.00;;
13590;SDS011;6866;50.778;7.206;2022-07-30T07:42:58;18.08;;;8.13;;
13590;SDS011;6866;50.778;7.206;2022-07-30T07:45:23;20.52;;;8.55;;
13590;SDS011;6866;50.778;7.206;2022-07-30T07:47:49;14.23;;;8.32;;
13590;SDS011;6866;50.778;7.206;2022-07-30T07:50:15;15.25;;;7.88;;
13590;SDS011;6866;50.778;7.206;2022-07-30T07:52:42;12.18;;;7.00;;
13590;SDS011;6866;50.778;7.206;2022-07-30T07:55:07;14.10;;;7.50;;
13590;SDS011;6866;50.778;7.206;2022-07-30T07:57:37;15.40;;;7.10;;
13590;SDS011;6866;50.778;7.206;2022-07-30T08:00:07;12.80;;;7.13;;
13590;SDS011;6866;50.778;7.206;2022-07-30T08:02:33;12.55;;;7.35;;
13590;SDS011;6866;50.778;7.206;2022-07-30T08:04:59;14.43;;;6.80;;
13590;SDS011;6866;50.778;7.206;2022-07-30T08:07:25;12.55;;;7.28;;
13590;SDS011;6866;50.778;7.206;2022-07-30T08:09:50;11.00;;;6.05;;
13590;SDS011;6866;50.778;7.206;2022-07-30T08:12:16;12.40;;;6.50;;
13590;SDS011;6866;50.778;7.206;2022-07-30T08:14:41;17.83;;;6.70;;
13590;SDS011;6866;50.778;7.206;2022-07-30T08:17:07;13.40;;;7.23;;
13590;SDS011;6866;50.778;7.206;2022-07-30T08:19:33;12.52;;;7.07;;
13590;SDS011;6866;50.778;7.206;2022-07-30T08:21:58;13.00;;;6.55;;
13590;SDS011;6866;50.778;7.206;2022-07-30T08:24:24;12.43;;;6.90;;
13590;SDS011;6866;50.778;7.206;2022-07-30T08:26:50;10.77;;;6.57;;
13590;SDS011;6866;50.778;7.206;2022-07-30T08:29:15;11.35;;;6.18;;
13590;SDS011;6866;50.778;7.206;2022-07-30T08:31:41;16.52;;;6.80;;
13590;SDS011;6866;50.778;7.206;2022-07-30T08:34:06;12.85;;;7.07;;
13590;SDS011;6866;50.778;7.206;2022-07-30T08:36:32;13.05;;;6.43;;
13590;SDS011;6866;50.778;7.206;2022-07-30T08:38:58;13.90;;;6.20;;
13590;SDS011;6866;50.778;7.206;2022-07-30T08:41:23;13.27;;;5.93;;
13590;SDS011;6866;50.778;7.206;2022-07-30T08:43:50;11.68;;;6.15;;
13590;SDS011;6866;50.778;7.206;2022-07-30T08:46:16;12.00;;;6.30;;
13590;SDS011;6866;50.778;7.206;2022-07-30T08:48:47;16.92;;;7.03;;
13590;SDS011;6866;50.778;7.206;2022-07-30T08:51:14;12.90;;;7.13;;
13590;SDS011;6866;50.778;7.206;2022-07-30T08:53:41;11.45;;;7.30;;
13590;SDS011;6866;50.778;7.206;2022-07-30T08:58:33;12.35;;;6.28;;
13590;SDS011;6866;50.778;7.206;2022-07-30T09:00:59;13.98;;;7.10;;
13590;SDS011;6866;50.778;7.206;2022-07-30T09:03:26;11.82;;;6.78;;
13590;SDS011;6866;50.778;7.206;2022-07-30T09:05:51;12.30;;;6.05;;
13590;SDS011;6866;50.778;7.206;2022-07-30T09:08:17;13.93;;;6.60;;
13590;SDS011;6866;50.778;7.206;2022-07-30T09:10:43;11.80;;;6.10;;
13590;SDS011;6866;50.778;7.206;2022-07-30T09:13:27;13.52;;;6.40;;
13590;SDS011;6866;50.778;7.206;2022-07-30T09:15:55;14.00;;;6.45;;
13590;SDS011;6866;50.778;7.206;2022-07-30T09:18:28;13.00;;;6.20;;
13590;SDS011;6866;50.778;7.206;2022-07-30T09:21:18;10.77;;;5.85;;
13590;SDS011;6866;50.778;7.206;2022-07-30T09:24:05;11.60;;;5.53;;
13590;SDS011;6866;50.778;7.206;2022-07-30T09:29:31;11.95;;;5.65;;
13590;SDS011;6866;50.778;7.206;2022-07-30T09:34:37;14.02;;;6.50;;
13590;SDS011;6866;50.778;7.206;2022-07-30T09:37:15;13.82;;;7.18;;
13590;SDS011;6866;50.778;7.206;2022-07-30T09:39:42;13.60;;;5.82;;
13590;SDS011;6866;50.778;7.206;2022-07-30T09:44:46;11.52;;;6.60;;
13590;SDS011;6866;50.778;7.206;2022-07-30T09:50:05;11.95;;;5.93;;
13590;SDS011;6866;50.778;7.206;2022-07-30T09:52:36;15.00;;;6.93;;
13590;SDS011;6866;50.778;7.206;2022-07-30T09:55:02;11.90;;;6.53;;
13590;SDS011;6866;50.778;7.206;2022-07-30T09:57:29;12.40;;;6.22;;
13590;SDS011;6866;50.778;7.206;2022-07-30T09:59:55;13.23;;;7.10;;
13590;SDS011;6866;50.778;7.206;2022-07-30T10:02:29;13.20;;;6.75;;
13590;SDS011;6866;50.778;7.206;2022-07-30T10:05:07;11.25;;;6.72;;
13590;SDS011;6866;50.778;7.206;2022-07-30T10:07:34;12.45;;;6.32;;
13590;SDS011;6866;50.778;7.206;2022-07-30T10:10:00;13.80;;;6.80;;
13590;SDS011;6866;50.778;7.206;2022-07-30T10:12:26;12.13;;;6.15;;
13590;SDS011;6866;50.778;7.206;2022-07-30T10:14:52;10.48;;;6.05;;
13590;SDS011;6866;50.778;7.206;2022-07-30T10:17:20;13.05;;;6.53;;
13590;SDS011;6866;50.778;7.206;2022-07-30T10:19:46;13.10;;;6.38;;
13590;SDS011;6866;50.778;7.206;2022-07-30T10:22:12;10.50;;;4.93;;
13590;SDS011;6866;50.778;7.206;2022-07-30T10:29:32;15.15;;;6.20;;
13590;SDS011;6866;50.778;7.206;2022-07-30T10:32:01;13.30;;;7.05;;
13590;SDS011;6866;50.778;7.206;2022-07-30T10:34:26;14.27;;;6.53;;
13590;SDS011;6866;50.778;7.206;2022-07-30T10:36:54;12.95;;;6.15;;
13590;SDS011;6866;50.778;7.206;2022-07-30T10:39:24;11.93;;;6.05;;
13590;SDS011;6866;50.778;7.206;2022-07-30T10:42:18;13.25;;;5.43;;
13590;SDS011;6866;50.778;7.206;2022-07-30T10:47:18;15.25;;;5.78;;
13590;SDS011;6866;50.778;7.206;2022-07-30T10:50:03;11.30;;;6.18;;
13590;SDS011;6866;50.778;7.206;2022-07-30T10:55:11;15.18;;;4.72;;
13590;SDS011;6866;50.778;7.206;2022-07-30T10:57:55;13.68;;;5.00;;
13590;SDS011;6866;50.778;7.206;2022-07-30T11:00:35;14.00;;;5.30;;
13590;SDS011;6866;50.778;7.206;2022-07-30T11:05:48;10.73;;;5.18;;
13590;SDS011;6866;50.778;7.206;2022-07-30T11:52:29;7.53;;;3.53;;
13590;SDS011;6866;50.778;7.206;2022-07-30T11:54:55;10.15;;;3.83;;
13590;SDS011;6866;50.778;7.206;2022-07-30T14:07:51;5.90;;;2.50;;
13590;SDS011;6866;50.778;7.206;2022-07-30T14:10:17;5.22;;;2.30;;
13590;SDS011;6866;50.778;7.206;2022-07-30T14:12:46;7.25;;;2.75;;
13590;SDS011;6866;50.778;7.206;2022-07-30T14:15:12;7.07;;;2.90;;
13590;SDS011;6866;50.778;7.206;2022-07-30T14:17:37;7.70;;;2.60;;
13590;SDS011;6866;50.778;7.206;2022-07-30T14:20:03;6.32;;;2.53;;
13590;SDS011;6866;50.778;7.206;2022-07-30T15:28:03;6.35;;;1.90;;
13590;SDS011;6866;50.778;7.206;2022-07-30T15:30:29;6.00;;;2.13;;
13590;SDS011;6866;50.778;7.206;2022-07-30T15:52:21;4.05;;;1.40;;
13590;SDS011;6866;50.778;7.206;2022-07-30T15:54:46;5.85;;;1.50;;
13590;SDS011;6866;50.778;7.206;2022-07-30T15:57:12;4.20;;;1.30;;
13590;SDS011;6866;50.778;7.206;2022-07-30T15:59:37;4.55;;;1.40;;
13590;SDS011;6866;50.778;7.206;2022-07-30T16:02:03;3.55;;;1.50;;
13590;SDS011;6866;50.778;7.206;2022-07-30T16:04:29;6.63;;;1.77;;
13590;SDS011;6866;50.778;7.206;2022-07-30T16:06:56;4.80;;;1.90;;
13590;SDS011;6866;50.778;7.206;2022-07-30T16:09:25;6.40;;;1.83;;
13590;SDS011;6866;50.778;7.206;2022-07-30T16:11:51;3.80;;;1.40;;
13590;SDS011;6866;50.778;7.206;2022-07-30T16:14:16;5.05;;;2.03;;
13590;SDS011;6866;50.778;7.206;2022-07-30T16:16:42;4.90;;;1.90;;
13590;SDS011;6866;50.778;7.206;2022-07-30T16:19:08;4.55;;;1.70;;
13590;SDS011;6866;50.778;7.206;2022-07-30T16:21:34;8.30;;;1.80;;
13590;SDS011;6866;50.778;7.206;2022-07-30T16:24:00;6.68;;;1.63;;
13590;SDS011;6866;50.778;7.206;2022-07-30T16:26:26;5.30;;;2.05;;
13590;SDS011;6866;50.778;7.206;2022-07-30T16:28:52;5.00;;;2.13;;
13590;SDS011;6866;50.778;7.206;2022-07-30T16:31:17;7.70;;;1.90;;
13590;SDS011;6866;50.778;7.206;2022-07-30T16:33:43;4.28;;;1.73;;
13590;SDS011;6866;50.778;7.206;2022-07-30T16:36:09;5.03;;;1.63;;
13590;SDS011;6866;50.778;7.206;2022-07-30T16:38:35;6.13;;;1.50;;
13590;SDS011;6866;50.778;7.206;2022-07-30T16:41:01;4.22;;;1.83;;
13590;SDS011;6866;50.778;7.206;2022-07-30T16:43:27;4.18;;;1.50;;
13590;SDS011;6866;50.778;7.206;2022-07-30T16:45:55;4.43;;;1.75;;
13590;SDS011;6866;50.778;7.206;2022-07-30T16:48:22;3.40;;;1.63;;
13590;SDS011;6866;50.778;7.206;2022-07-30T16:50:47;4.05;;;1.55;;
13590;SDS011;6866;50.778;7.206;2022-07-30T16:53:13;6.43;;;1.95;;
13590;SDS011;6866;50.778;7.206;2022-07-30T16:55:39;8.02;;;1.55;;
13590;SDS011;6866;50.778;7.206;2022-07-30T16:58:04;5.00;;;1.55;;
13590;SDS011;6866;50.778;7.206;2022-07-30T17:00:30;4.35;;;1.52;;
13590;SDS011;6866;50.778;7.206;2022-07-30T17:02:56;4.93;;;1.70;;
13590;SDS011;6866;50.778;7.206;2022-07-30T17:05:21;5.47;;;1.92;;
13590;SDS011;6866;50.778;7.206;2022-07-30T17:07:47;4.15;;;1.50;;
13590;SDS011;6866;50.778;7.206;2022-07-30T17:10:12;5.43;;;1.40;;
13590;SDS011;6866;50.778;7.206;2022-07-30T17:12:38;6.97;;;1.98;;
13590;SDS011;6866;50.778;7.206;2022-07-30T17:15:04;9.98;;;3.03;;
13590;SDS011;6866;50.778;7.206;2022-07-30T17:17:30;7.85;;;1.65;;
13590;SDS011;6866;50.778;7.206;2022-07-30T17:19:55;4.97;;;1.50;;
13590;SDS011;6866;50.778;7.206;2022-07-30T17:22:21;3.30;;;1.50;;
13590;SDS011;6866;50.778;7.206;2022-07-30T17:24:47;7.80;;;1.65;;
13590;SDS011;6866;50.778;7.206;2022-07-30T17:27:12;7.10;;;2.10;;
13590;SDS011;6866;50.778;7.206;2022-07-30T17:29:38;3.92;;;1.33;;
13590;SDS011;6866;50.778;7.206;2022-07-30T17:32:03;3.63;;;1.60;;
13590;SDS011;6866;50.778;7.206;2022-07-30T17:34:29;5.30;;;1.45;;
13590;SDS011;6866;50.778;7.206;2022-07-30T17:36:55;5.68;;;1.40;;
13590;SDS011;6866;50.778;7.206;2022-07-30T17:39:21;6.28;;;1.95;;
13590;SDS011;6866;50.778;7.206;2022-07-30T17:41:46;4.60;;;1.40;;
13590;SDS011;6866;50.778;7.206;2022-07-30T17:44:12;3.22;;;1.40;;
13590;SDS011;6866;50.778;7.206;2022-07-30T17:46:38;2.92;;;1.38;;
13590;SDS011;6866;50.778;7.206;2022-07-30T17:49:03;4.68;;;1.60;;
13590;SDS011;6866;50.778;7.206;2022-07-30T17:51:29;3.58;;;1.30;;
13590;SDS011;6866;50.778;7.206;2022-07-30T17:53:55;3.95;;;1.20;;
13590;SDS011;6866;50.778;7.206;2022-07-30T17:56:20;5.65;;;1.40;;
13590;SDS011;6866;50.778;7.206;2022-07-30T17:58:46;5.07;;;1.38;;
13590;SDS011;6866;50.778;7.206;2022-07-30T18:01:11;3.75;;;1.30;;
13590;SDS011;6866;50.778;7.206;2022-07-30T18:03:37;3.25;;;1.40;;
13590;SDS011;6866;50.778;7.206;2022-07-30T18:06:03;3.88;;;1.20;;
13590;SDS011;6866;50.778;7.206;2022-07-30T18:08:29;3.75;;;1.33;;
13590;SDS011;6866;50.778;7.206;2022-07-30T18:10:56;3.53;;;1.40;;
13590;SDS011;6866;50.778;7.206;2022-07-30T18:13:22;4.18;;;1.40;;
13590;SDS011;6866;50.778;7.206;2022-07-30T18:15:48;3.92;;;1.20;;
13590;SDS011;6866;50.778;7.206;2022-07-30T18:18:14;3.42;;;1.58;;
13590;SDS011;6866;50.778;7.206;2022-07-30T18:20:40;4.75;;;1.58;;
13590;SDS011;6866;50.778;7.206;2022-07-30T18:23:05;5.90;;;1.80;;
13590;SDS011;6866;50.778;7.206;2022-07-30T18:25:32;3.47;;;1.48;;
13590;SDS011;6866;50.778;7.206;2022-07-30T18:27:58;3.22;;;1.30;;
13590;SDS011;6866;50.778;7.206;2022-07-30T18:30:24;4.75;;;1.67;;
13590;SDS011;6866;50.778;7.206;2022-07-30T18:32:50;3.80;;;1.45;;
13590;SDS011;6866;50.778;7.206;2022-07-30T18:35:15;2.72;;;1.35;;
13590;SDS011;6866;50.778;7.206;2022-07-30T18:37:41;6.43;;;1.67;;
13590;SDS011;6866;50.778;7.206;2022-07-30T18:40:08;3.80;;;1.60;;
13590;SDS011;6866;50.778;7.206;2022-07-30T18:42:35;3.22;;;1.33;;
13590;SDS011;6866;50.778;7.206;2022-07-30T18:45:00;4.80;;;1.50;;
13590;SDS011;6866;50.778;7.206;2022-07-30T18:47:26;4.22;;;1.83;;
13590;SDS011;6866;50.778;7.206;2022-07-30T18:49:52;6.07;;;1.40;;
13590;SDS011;6866;50.778;7.206;2022-07-30T18:52:19;5.65;;;1.70;;
13590;SDS011;6866;50.778;7.206;2022-07-30T18:54:45;5.35;;;1.85;;
13590;SDS011;6866;50.778;7.206;2022-07-30T18:57:10;3.85;;;1.60;;
13590;SDS011;6866;50.778;7.206;2022-07-30T18:59:36;5.70;;;1.75;;
13590;SDS011;6866;50.778;7.206;2022-07-30T19:02:02;3.90;;;1.60;;
13590;SDS011;6866;50.778;7.206;2022-07-30T19:04:28;4.45;;;1.70;;
13590;SDS011;6866;50.778;7.206;2022-07-30T19:06:55;5.57;;;1.40;;
13590;SDS011;6866;50.778;7.206;2022-07-30T19:09:21;5.40;;;1.65;;
13590;SDS011;6866;50.778;7.206;2022-07-30T19:11:46;7.25;;;1.92;;
13590;SDS011;6866;50.778;7.206;2022-07-30T19:14:13;6.57;;;2.03;;
13590;SDS011;6866;50.778;7.206;2022-07-30T19:19:05;4.40;;;2.10;;
13590;SDS011;6866;50.778;7.206;2022-07-30T19:21:31;4.75;;;1.85;;
13590;SDS011;6866;50.778;7.206;2022-07-30T19:23:57;7.28;;;2.20;;
13590;SDS011;6866;50.778;7.206;2022-07-30T19:26:23;5.18;;;1.70;;
13590;SDS011;6866;50.778;7.206;2022-07-30T19:28:48;5.63;;;2.13;;
13590;SDS011;6866;50.778;7.206;2022-07-30T19:31:14;6.10;;;1.80;;
13590;SDS011;6866;50.778;7.206;2022-07-30T19:33:40;6.05;;;2.22;;
13590;SDS011;6866;50.778;7.206;2022-07-30T19:36:06;4.40;;;2.20;;
13590;SDS011;6866;50.778;7.206;2022-07-30T19:38:32;4.43;;;1.83;;
13590;SDS011;6866;50.778;7.206;2022-07-30T19:40:58;4.70;;;1.90;;
13590;SDS011;6866;50.778;7.206;2022-07-30T19:43:24;4.38;;;1.73;;
13590;SDS011;6866;50.778;7.206;2022-07-30T19:45:50;5.63;;;1.88;;
13590;SDS011;6866;50.778;7.206;2022-07-30T19:48:16;6.60;;;1.90;;